Time;durP1;ratioP1;P1;durP2;ratioP2;P2;SDS_P1;SDS_P2;PMS_P1;PMS_P2;Temp;Humidity;BMP_temperature;BMP_pressure;BME280_temperature;BME280_humidity;BME280_pressure;Samples;Min_cycle;Max_cycle;Signal;HPM_P1;HPM_P2
2022/01/15 00:01:56;;;;;;;;;26.40;24.40;;;;;4.30;64.62;100193.66;5068256;28;8855;-78
2022/01/15 00:04:25;;;;;;;;;25.00;24.50;;;;;4.27;64.36;100193.53;5076823;28;8855;-81
2022/01/15 00:06:53;;;;;;;;;28.40;25.40;;;;;4.20;64.57;100192.47;5069822;28;9625;-81
2022/01/15 00:09:22;;;;;;;;;31.50;29.50;;;;;4.19;65.18;100205.31;5051237;28;8842;-79
2022/01/15 00:11:52;;;;;;;;;23.00;23.00;;;;;4.16;65.26;100205.19;5017847;28;8996;-79
2022/01/15 00:14:26;;;;;;;;;30.00;27.00;;;;;4.06;65.84;100199.72;5034009;28;8858;-82
2022/01/15 00:17:05;;;;;;;;;32.40;29.40;;;;;4.08;65.33;100202.34;5068225;28;8842;-80
2022/01/15 00:19:41;;;;;;;;;27.75;26.25;;;;;4.00;65.61;100203.78;5068160;28;8860;-79
2022/01/15 00:22:11;;;;;;;;;30.00;27.75;;;;;3.95;66.20;100215.63;5068222;28;8854;-79
2022/01/15 00:24:40;;;;;;;;;33.00;28.25;;;;;4.01;66.00;100221.91;5060913;28;8949;-79
2022/01/15 00:27:09;;;;;;;;;21.20;18.20;;;;;4.00;66.01;100224.41;5086794;28;8842;-79
2022/01/15 00:29:39;;;;;;;;;27.40;25.20;;;;;3.97;66.11;100217.47;5069711;28;8940;-79
2022/01/15 00:32:10;;;;;;;;;24.00;19.60;;;;;4.01;65.95;100221.91;5053230;28;8881;-80
2022/01/15 00:34:39;;;;;;;;;28.40;24.80;;;;;3.99;66.18;100217.47;5069724;28;9087;-79
2022/01/15 00:37:08;;;;;;;;;23.80;23.60;;;;;4.02;66.13;100217.59;5020210;28;8863;-79
2022/01/15 00:39:37;;;;;;;;;20.20;18.40;;;;;4.05;65.76;100217.72;5069777;28;8848;-79
2022/01/15 00:42:08;;;;;;;;;23.20;19.40;;;;;4.05;65.77;100212.56;5069170;28;8891;-79
2022/01/15 00:44:39;;;;;;;;;20.40;19.60;;;;;4.07;66.06;100223.81;5052801;28;8919;-78
2022/01/15 00:47:10;;;;;;;;;17.00;14.00;;;;;4.01;66.28;100221.91;5069454;28;8866;-79
2022/01/15 00:49:39;;;;;;;;;19.20;14.40;;;;;3.94;66.60;100232.81;5026108;28;8874;-79
2022/01/15 00:52:08;;;;;;;;;22.00;21.00;;;;;3.91;67.02;100235.25;4986755;28;8875;-79
2022/01/15 00:54:37;;;;;;;;;22.00;21.00;;;;;3.81;67.42;100258.97;4954401;28;8851;-79
2022/01/15 00:57:07;;;;;;;;;26.80;23.80;;;;;3.77;67.39;100247.66;4954400;28;8982;-78
2022/01/15 00:59:36;;;;;;;;;23.20;21.20;;;;;3.75;67.68;100249.28;4985698;28;9717;-79
2022/01/15 01:02:05;;;;;;;;;22.60;19.80;;;;;3.78;67.67;100252.00;4977637;28;8887;-80
2022/01/15 01:04:36;;;;;;;;;17.80;16.60;;;;;3.74;67.89;100241.50;4989227;28;9868;-79
2022/01/15 01:07:06;;;;;;;;;21.80;17.00;;;;;3.72;68.21;100228.53;4973517;28;8871;-80
2022/01/15 01:09:50;;;;;;;;;22.80;20.20;;;;;3.69;68.24;100231.03;4989939;28;8859;-79
2022/01/15 01:12:30;;;;;;;;;18.60;17.40;;;;;3.65;68.45;100240.34;4973441;28;8888;-80
2022/01/15 01:20:49;;;;;;;;;23.80;21.00;;;;;3.47;69.23;100234.47;4980524;28;8967;-79
2022/01/15 01:23:17;;;;;;;;;19.00;18.60;;;;;3.45;69.77;100236.97;4991156;28;8866;-78
2022/01/15 01:25:49;;;;;;;;;22.20;22.00;;;;;3.40;69.89;100242.75;5041828;28;8874;-78
2022/01/15 01:28:25;;;;;;;;;31.20;25.60;;;;;3.32;70.30;100247.63;5044239;28;8858;-78
2022/01/15 01:30:59;;;;;;;;;26.60;23.20;;;;;3.29;70.53;100252.66;5024006;28;8876;-79
2022/01/15 01:33:33;;;;;;;;;26.40;26.40;;;;;3.28;70.45;100248.31;5008350;28;8871;-78
2022/01/15 01:36:14;;;;;;;;;27.00;21.50;;;;;3.23;70.96;100242.09;5025143;28;8840;-77
2022/01/15 01:38:50;;;;;;;;;21.40;18.40;;;;;3.18;71.02;100252.22;5008669;28;8863;-79
2022/01/15 01:41:21;;;;;;;;;25.00;24.40;;;;;3.18;71.71;100253.94;5010432;28;8835;-79
2022/01/15 01:43:55;;;;;;;;;17.00;14.00;;;;;3.12;71.78;100255.44;4996449;28;8855;-80
2022/01/15 01:46:38;;;;;;;;;24.20;23.60;;;;;3.07;72.18;100250.91;5033263;28;8973;-80
2022/01/15 01:49:13;;;;;;;;;22.80;21.40;;;;;3.04;72.27;100264.53;5015723;28;8866;-79
2022/01/15 01:51:44;;;;;;;;;24.00;19.60;;;;;2.99;72.89;100253.19;4973686;28;8866;-79
2022/01/15 01:54:18;;;;;;;;;20.80;17.20;;;;;2.91;73.14;100252.88;4957344;28;8866;-79
2022/01/15 01:56:48;;;;;;;;;22.40;20.00;;;;;2.84;73.61;100258.56;4950577;28;8844;-80
2022/01/15 01:59:17;;;;;;;;;23.00;17.40;;;;;2.83;73.74;100261.06;4976458;28;8867;-78
2022/01/15 02:01:46;;;;;;;;;29.40;23.40;;;;;2.83;73.73;100256.78;4984006;28;8865;-78
2022/01/15 02:04:16;;;;;;;;;20.80;18.80;;;;;2.81;74.23;100249.81;4992449;28;8962;-78
2022/01/15 02:06:47;;;;;;;;;23.20;21.60;;;;;2.70;74.42;100249.38;5024381;28;8869;-79
2022/01/15 02:09:17;;;;;;;;;20.80;19.00;;;;;2.65;74.81;100241.47;5009423;28;8843;-78
2022/01/15 02:11:46;;;;;;;;;18.80;18.80;;;;;2.65;75.06;100253.47;4992790;28;8836;-79
2022/01/15 02:14:25;;;;;;;;;20.00;20.00;;;;;2.62;75.25;100245.59;5009113;28;8885;-80
2022/01/15 02:16:54;;;;;;;;;23.50;19.25;;;;;2.63;75.44;100253.38;5009790;28;8886;-79
2022/01/15 02:19:26;;;;;;;;;28.40;23.40;;;;;2.55;75.57;100259.88;4960694;28;8872;-79
2022/01/15 02:24:42;;;;;;;;;17.80;13.80;;;;;2.68;75.52;100262.16;5025178;28;8820;-79
2022/01/15 02:27:11;;;;;;;;;24.80;21.40;;;;;2.76;75.39;100264.19;5009100;28;8958;-79
2022/01/15 02:29:40;;;;;;;;;19.40;16.60;;;;;2.67;75.46;100267.28;5025536;28;9009;-79
2022/01/15 02:32:09;;;;;;;;;23.00;20.40;;;;;2.72;75.26;100276.97;5025240;28;8843;-79
2022/01/15 02:34:38;;;;;;;;;24.40;22.20;;;;;2.77;74.61;100274.56;5028256;28;8833;-79
2022/01/15 02:37:09;;;;;;;;;23.00;19.60;;;;;2.68;75.43;100285.34;5020069;28;8851;-79
2022/01/15 02:39:38;;;;;;;;;25.40;22.40;;;;;2.77;75.73;100276.28;5047633;28;8846;-79
2022/01/15 02:42:07;;;;;;;;;28.00;22.00;;;;;2.76;75.11;100274.50;5048162;28;8874;-80
2022/01/15 02:44:38;;;;;;;;;21.60;21.60;;;;;2.60;76.05;100288.41;5015764;28;9011;-79
2022/01/15 02:49:54;;;;;;;;;20.40;18.20;;;;;2.38;77.38;100302.91;5012087;28;8894;-79
2022/01/15 02:52:24;;;;;;;;;26.60;23.40;;;;;2.36;77.52;100306.22;5010470;28;8849;-78
2022/01/15 02:54:53;;;;;;;;;22.60;14.80;;;;;2.27;77.75;100305.03;5014800;28;8856;-79
2022/01/15 02:57:22;;;;;;;;;20.60;17.00;;;;;2.27;nan;100306.69;5051412;28;8840;-79
2022/01/15 02:59:51;;;;;;;;;25.20;22.20;;;;;2.30;78.03;100301.69;5051423;28;9632;-79
2022/01/15 03:02:20;;;;;;;;;18.60;17.80;;;;;2.29;78.18;100307.66;5051008;28;8867;-79
2022/01/15 03:04:49;;;;;;;;;27.80;19.80;;;;;2.31;78.22;100314.63;5051239;28;8898;-78
2022/01/15 03:07:18;;;;;;;;;17.60;15.80;;;;;2.34;77.93;100307.06;5035171;28;8844;-78
2022/01/15 03:09:49;;;;;;;;;25.80;23.00;;;;;2.43;78.03;100310.84;5068901;28;8888;-79
2022/01/15 03:12:17;;;;;;;;;24.80;21.80;;;;;2.58;77.17;100310.66;5061527;28;8915;-79
2022/01/15 03:14:48;;;;;;;;;22.20;19.80;;;;;2.81;76.16;100319.38;5052925;28;8842;-79
2022/01/15 03:17:17;;;;;;;;;22.00;19.60;;;;;2.87;75.60;100317.03;5018534;28;8955;-79
2022/01/15 03:19:46;;;;;;;;;19.60;19.60;;;;;2.88;75.75;100321.41;5051387;28;8890;-78
2022/01/15 03:22:15;;;;;;;;;24.80;21.80;;;;;2.76;76.08;100324.34;5035131;28;8873;-81
2022/01/15 03:24:43;;;;;;;;;24.20;20.40;;;;;2.66;76.67;100324.72;5068580;28;8943;-79
2022/01/15 03:27:13;;;;;;;;;21.20;18.80;;;;;2.73;76.41;100325.06;5096780;28;9305;-78
2022/01/15 03:29:43;;;;;;;;;29.00;23.00;;;;;2.62;76.97;100333.13;5072540;28;8932;-79
2022/01/15 03:32:12;;;;;;;;;22.40;19.20;;;;;2.65;76.98;100329.00;5072133;28;8851;-79
2022/01/15 03:34:40;;;;;;;;;20.20;18.40;;;;;2.64;77.02;100334.09;5070489;28;8862;-79
2022/01/15 03:37:10;;;;;;;;;20.80;19.20;;;;;2.43;78.13;100336.59;5069941;28;8857;-78
2022/01/15 03:39:38;;;;;;;;;24.40;23.20;;;;;2.22;79.37;100334.81;4998529;28;8858;-78
2022/01/15 03:42:11;;;;;;;;;23.40;20.40;;;;;2.21;79.75;100324.44;5013891;28;8865;-79
2022/01/15 03:44:44;;;;;;;;;27.60;23.40;;;;;2.11;80.00;100328.28;4998963;28;8831;-78
2022/01/15 03:47:14;;;;;;;;;25.40;23.00;;;;;2.04;80.45;100337.44;5030638;28;8897;-79
2022/01/15 03:49:44;;;;;;;;;19.80;18.80;;;;;2.06;80.64;100343.53;5030413;28;8858;-79
2022/01/15 03:52:13;;;;;;;;;30.80;24.80;;;;;2.14;80.52;100341.28;5013841;28;8877;-79
2022/01/15 03:54:42;;;;;;;;;29.00;23.75;;;;;2.19;79.99;100344.06;5030393;28;8842;-78
2022/01/15 03:57:11;;;;;;;;;20.80;18.20;;;;;2.55;78.78;100352.56;5010521;28;8848;-79
2022/01/15 03:59:40;;;;;;;;;19.40;19.40;;;;;2.82;76.87;100352.91;5026676;28;8845;-79
2022/01/15 04:02:11;;;;;;;;;27.25;25.00;;;;;2.88;76.73;100360.91;5010451;28;8870;-78
2022/01/15 04:04:40;;;;;;;;;24.25;23.25;;;;;3.16;76.16;100358.63;5009886;28;8841;-78
2022/01/15 04:07:09;;;;;;;;;27.50;27.25;;;;;3.45;74.69;100357.28;5013766;28;8840;-79
2022/01/15 04:09:38;;;;;;;;;25.00;24.00;;;;;3.59;73.98;100358.72;5030255;28;8944;-78
2022/01/15 04:12:08;;;;;;;;;26.00;25.60;;;;;3.68;73.30;100365.94;5049782;28;8989;-78
2022/01/15 04:14:37;;;;;;;;;25.60;24.60;;;;;3.88;73.12;100365.03;5006513;28;9619;-81
2022/01/15 04:17:07;;;;;;;;;24.00;21.20;;;;;3.99;72.00;100369.72;5006420;28;8971;-79
2022/01/15 04:19:40;;;;;;;;;20.40;20.40;;;;;4.18;72.08;100364.47;4974364;28;8858;-79
2022/01/15 04:22:08;;;;;;;;;19.40;17.20;;;;;3.96;71.79;100367.06;4974448;28;8846;-79
2022/01/15 04:24:37;;;;;;;;;23.00;23.00;;;;;3.75;72.61;100380.84;4974218;28;8888;-79
2022/01/15 04:27:07;;;;;;;;;19.60;15.00;;;;;3.61;73.72;100384.56;5006541;28;9098;-78
2022/01/15 04:29:36;;;;;;;;;26.60;23.80;;;;;3.38;74.27;100386.19;4997681;28;8909;-79
2022/01/15 04:32:05;;;;;;;;;20.60;19.40;;;;;2.91;76.69;100388.47;5046549;28;8832;-78
2022/01/15 04:34:34;;;;;;;;;22.40;17.60;;;;;2.56;78.38;100392.97;5012961;28;9633;-78
2022/01/15 04:37:11;;;;;;;;;25.20;23.80;;;;;2.41;79.60;100393.13;5029950;28;8868;-78
2022/01/15 04:39:42;;;;;;;;;35.00;34.75;;;;;2.37;80.05;100408.38;5010130;28;8860;-78
2022/01/15 04:42:11;;;;;;;;;46.00;35.75;;;;;2.34;80.23;100422.88;5023120;28;8961;-79
2022/01/15 04:44:39;;;;;;;;;29.00;25.60;;;;;2.31;80.63;100408.97;5009443;28;8864;-79
2022/01/15 04:47:09;;;;;;;;;22.80;20.20;;;;;2.38;80.60;100412.69;4993571;28;8866;-78
2022/01/15 04:49:38;;;;;;;;;20.20;18.60;;;;;2.56;79.56;100416.13;5026222;28;9628;-79
2022/01/15 04:52:08;;;;;;;;;25.60;21.40;;;;;2.75;78.68;100417.84;5038629;28;8874;-79
2022/01/15 04:54:37;;;;;;;;;21.60;18.60;;;;;2.79;78.59;100413.72;5050266;28;8846;-78
2022/01/15 04:57:07;;;;;;;;;29.50;26.00;;;;;3.01;77.73;100416.44;5067184;28;8961;-79
2022/01/15 04:59:36;;;;;;;;;36.00;28.50;;;;;3.36;76.15;100421.34;5067147;28;8857;-79
2022/01/15 05:02:04;;;;;;;;;22.80;20.40;;;;;3.11;76.71;100417.69;5030805;28;8854;-80
2022/01/15 05:04:33;;;;;;;;;41.75;40.25;;;;;3.48;75.94;100424.44;5032697;28;8855;-78
2022/01/15 05:07:02;;;;;;;;;28.50;24.25;;;;;3.64;74.86;100423.38;5067118;28;8853;-79
2022/01/15 05:09:33;;;;;;;;;24.00;22.40;;;;;3.29;76.05;100426.25;5050304;28;8877;-79
2022/01/15 05:12:09;;;;;;;;;28.80;28.00;;;;;3.24;76.53;100434.59;5066584;28;9623;-80
2022/01/15 05:14:38;;;;;;;;;26.60;20.40;;;;;2.91;78.00;100445.16;5072237;28;8844;-80
2022/01/15 05:17:07;;;;;;;;;24.00;22.40;;;;;2.71;79.25;100445.16;5087288;28;8844;-79
2022/01/15 05:19:36;;;;;;;;;22.80;20.80;;;;;2.64;80.13;100439.66;5086814;28;8855;-79
2022/01/15 05:22:05;;;;;;;;;27.80;22.40;;;;;2.48;80.50;100445.81;5070376;28;8855;-80
2022/01/15 05:24:36;;;;;;;;;31.20;26.60;;;;;2.52;80.69;100452.84;5070355;28;8895;-79
2022/01/15 05:27:06;;;;;;;;;32.80;24.80;;;;;2.55;80.53;100460.69;5103776;28;9013;-78
2022/01/15 05:29:35;;;;;;;;;23.40;23.40;;;;;2.45;81.31;100466.25;5036744;28;8869;-79
2022/01/15 05:32:04;;;;;;;;;32.40;25.80;;;;;2.57;80.80;100460.78;5086935;28;8847;-81
2022/01/15 05:34:38;;;;;;;;;23.60;21.00;;;;;2.53;81.18;100470.03;4989680;28;8911;-79
2022/01/15 05:37:07;;;;;;;;;27.80;26.20;;;;;2.64;80.62;100468.84;5036198;28;8836;-78
2022/01/15 05:39:38;;;;;;;;;27.60;23.80;;;;;2.66;80.42;100474.94;5087775;28;8864;-79
2022/01/15 05:42:08;;;;;;;;;30.80;25.00;;;;;2.74;79.93;100472.72;5086363;28;8851;-81
2022/01/15 05:44:36;;;;;;;;;27.25;23.00;;;;;2.66;80.39;100480.09;5086633;28;8862;-79
2022/01/15 05:47:06;;;;;;;;;23.80;23.40;;;;;2.72;80.32;100477.84;5086297;28;9157;-82
2022/01/15 05:49:35;;;;;;;;;30.75;25.50;;;;;2.72;80.43;100485.56;5085463;28;8883;-80
2022/01/15 05:52:06;;;;;;;;;28.50;25.00;;;;;2.82;80.19;100493.72;5069579;28;8849;-79
2022/01/15 05:54:34;;;;;;;;;26.60;21.20;;;;;2.90;79.71;100498.38;5085251;28;8870;-79
2022/01/15 05:57:05;;;;;;;;;22.60;20.80;;;;;2.98;79.37;100495.28;5069161;28;8928;-79
2022/01/15 05:59:34;;;;;;;;;18.40;18.40;;;;;3.37;77.96;100490.13;5080003;28;8850;-77
2022/01/15 06:02:09;;;;;;;;;31.40;29.80;;;;;3.52;76.20;100485.66;5069853;28;8867;-80
2022/01/15 06:04:37;;;;;;;;;24.40;24.40;;;;;3.76;75.12;100490.94;5087712;28;9007;-79
2022/01/15 06:07:06;;;;;;;;;29.00;27.60;;;;;3.93;74.62;100480.44;5069421;28;8987;-79
2022/01/15 06:09:36;;;;;;;;;33.40;29.40;;;;;4.04;73.02;100487.81;5086510;28;8872;-78
2022/01/15 06:12:07;;;;;;;;;21.75;21.00;;;;;4.00;72.90;100485.06;5069619;28;9631;-80
2022/01/15 06:14:38;;;;;;;;;25.60;24.60;;;;;4.16;72.20;100484.88;5069811;28;8883;-80
2022/01/15 06:17:09;;;;;;;;;22.00;20.40;;;;;4.19;72.20;100484.97;5086166;28;8856;-78
2022/01/15 06:19:38;;;;;;;;;31.40;25.20;;;;;4.39;71.70;100487.47;5064353;28;9080;-79
2022/01/15 06:22:07;;;;;;;;;31.50;30.00;;;;;4.46;71.75;100487.78;4994959;28;8842;-80
2022/01/15 06:24:36;;;;;;;;;35.00;29.40;;;;;4.63;71.29;100493.59;5021865;28;8992;-80
2022/01/15 06:27:08;;;;;;;;;29.20;26.00;;;;;4.67;70.62;100498.06;5015918;28;8856;-79
2022/01/15 06:29:37;;;;;;;;;28.00;28.00;;;;;4.76;70.56;100502.69;5047863;28;8854;-80
2022/01/15 06:32:06;;;;;;;;;22.20;20.00;;;;;4.86;69.66;100504.81;5015151;28;9100;-80
2022/01/15 06:34:35;;;;;;;;;35.40;27.80;;;;;4.78;69.99;100511.41;5015092;28;9450;-79
2022/01/15 06:37:06;;;;;;;;;32.00;29.20;;;;;4.86;69.63;100504.81;5048272;28;8872;-79
2022/01/15 06:39:35;;;;;;;;;36.00;28.20;;;;;4.57;69.83;100518.31;5031462;28;8850;-80
2022/01/15 06:42:06;;;;;;;;;34.00;32.00;;;;;4.57;70.03;100521.75;5031577;28;8962;-79
2022/01/15 06:44:36;;;;;;;;;40.75;36.25;;;;;4.71;69.74;100519.75;5048371;28;8874;-80
2022/01/15 06:47:05;;;;;;;;;30.00;27.40;;;;;4.79;69.64;100518.31;5017604;28;8931;-80
2022/01/15 06:49:34;;;;;;;;;28.00;25.50;;;;;4.30;70.42;100525.00;5030595;28;9026;-78
2022/01/15 06:52:03;;;;;;;;;23.80;22.40;;;;;4.31;70.52;100520.75;5002029;28;8903;-80
2022/01/15 06:54:32;;;;;;;;;24.40;21.60;;;;;4.14;71.21;100521.75;5051173;28;8843;-81
2022/01/15 06:57:01;;;;;;;;;31.00;27.20;;;;;3.67;73.50;100530.13;5051158;28;8866;-80
2022/01/15 06:59:31;;;;;;;;;29.20;27.20;;;;;3.90;72.54;100530.25;5050982;28;8881;-79
2022/01/15 07:02:00;;;;;;;;;32.20;26.00;;;;;4.19;71.66;100530.56;5071805;28;9002;-79
2022/01/15 07:04:30;;;;;;;;;30.80;30.20;;;;;4.35;71.79;100527.78;5047381;28;9017;-79
2022/01/15 07:06:59;;;;;;;;;32.00;29.50;;;;;4.44;71.37;100537.59;5007619;28;8850;-79
2022/01/15 07:09:27;;;;;;;;;26.20;26.20;;;;;4.69;70.64;100542.06;4975293;28;8870;-78
2022/01/15 07:11:56;;;;;;;;;24.20;22.00;;;;;4.90;70.32;100544.59;4991206;28;8858;-79
2022/01/15 07:14:25;;;;;;;;;34.00;32.25;;;;;5.03;68.78;100553.69;5007788;28;8838;-79
2022/01/15 07:16:55;;;;;;;;;39.00;34.50;;;;;5.21;68.33;100550.91;4991487;28;8916;-79
2022/01/15 07:19:24;;;;;;;;;37.00;33.50;;;;;5.33;67.80;100546.19;5007478;28;8856;-79
2022/01/15 07:21:53;;;;;;;;;40.25;35.50;;;;;5.47;67.90;100547.56;5007339;28;8873;-80
2022/01/15 07:24:22;;;;;;;;;36.00;36.00;;;;;5.31;66.88;100553.00;5007192;28;8929;-80
2022/01/15 07:26:50;;;;;;;;;36.25;31.00;;;;;5.31;66.67;100545.22;5007592;28;9739;-81
2022/01/15 07:29:19;;;;;;;;;42.75;36.25;;;;;5.35;67.00;100552.31;5007222;28;8866;-82
2022/01/15 07:31:48;;;;;;;;;37.00;33.50;;;;;5.48;66.84;100558.78;4991017;28;8856;-79
2022/01/15 07:34:18;;;;;;;;;34.25;34.25;;;;;5.56;66.68;100561.69;4987516;28;8854;-78
2022/01/15 07:36:52;;;;;;;;;32.00;29.50;;;;;5.70;66.80;100562.16;4955569;28;9040;-79
2022/01/15 07:39:21;;;;;;;;;29.75;26.75;;;;;5.82;66.26;100563.47;4986655;28;8849;-78
2022/01/15 07:41:50;;;;;;;;;39.25;34.50;;;;;5.95;65.77;100566.47;4909165;28;8854;-80
2022/01/15 07:44:19;;;;;;;;;39.25;31.25;;;;;6.05;65.26;100573.78;4936592;28;8917;-80
2022/01/15 07:46:48;;;;;;;;;42.00;37.75;;;;;6.12;64.63;100578.31;4952023;28;8896;-80
2022/01/15 07:49:19;;;;;;;;;39.75;36.50;;;;;6.23;64.84;100578.69;4935584;28;8967;-79
2022/01/15 07:51:47;;;;;;;;;28.50;25.25;;;;;6.17;64.37;100581.97;4952011;28;8968;-79
2022/01/15 07:54:16;;;;;;;;;37.25;34.50;;;;;6.28;64.83;100579.75;4951617;28;8870;-80
2022/01/15 07:56:45;;;;;;;;;34.75;33.75;;;;;6.23;64.08;100584.75;4949480;28;8854;-80
2022/01/15 07:59:14;;;;;;;;;27.75;27.25;;;;;6.31;64.11;100587.59;4951727;28;8850;-80
2022/01/15 08:01:43;;;;;;;;;36.00;31.50;;;;;6.41;64.01;100578.44;4968011;28;8854;-80
2022/01/15 08:04:12;;;;;;;;;40.25;35.75;;;;;6.52;63.79;100589.13;4961394;28;8861;-80
2022/01/15 08:06:42;;;;;;;;;38.50;37.25;;;;;6.62;64.28;100586.03;4974046;28;8874;-80
2022/01/15 08:09:11;;;;;;;;;35.00;34.20;;;;;6.68;63.76;100586.22;4990419;28;8854;-80
2022/01/15 08:11:40;;;;;;;;;34.25;29.50;;;;;6.16;62.71;100598.34;4971216;28;8887;-80
2022/01/15 08:14:09;;;;;;;;;35.50;27.00;;;;;6.08;63.49;100596.31;5044176;28;8834;-81
2022/01/15 08:16:38;;;;;;;;;40.75;35.50;;;;;6.15;63.78;100599.16;5067777;28;8966;-81
2022/01/15 08:19:07;;;;;;;;;38.75;34.50;;;;;6.15;63.90;100601.75;5049568;28;8850;-80
2022/01/15 08:21:36;;;;;;;;;31.00;24.60;;;;;6.12;63.27;100600.75;5033019;28;9079;-80
2022/01/15 08:24:06;;;;;;;;;37.20;33.60;;;;;6.12;63.61;100596.44;5004327;28;8957;-81
2022/01/15 08:26:35;;;;;;;;;30.75;30.00;;;;;6.04;63.92;100610.84;5069078;28;8876;-82
2022/01/15 08:29:05;;;;;;;;;35.25;34.00;;;;;6.04;64.40;100603.09;5020080;28;8864;-81
2022/01/15 08:31:34;;;;;;;;;31.80;29.00;;;;;5.90;65.28;100606.84;5069232;28;9573;-80
2022/01/15 08:34:03;;;;;;;;;39.00;32.25;;;;;5.64;64.67;100605.09;5025791;28;8863;-80
2022/01/15 08:36:36;;;;;;;;;27.20;26.80;;;;;5.79;65.36;100607.34;5025624;28;8921;-81
2022/01/15 08:39:09;;;;;;;;;34.75;32.25;;;;;5.90;64.46;100605.16;4993443;28;8871;-79
2022/01/15 08:41:38;;;;;;;;;32.00;25.00;;;;;5.81;64.01;100610.88;4993255;28;8851;-79
2022/01/15 08:44:07;;;;;;;;;30.25;28.75;;;;;5.33;66.85;100607.38;4992910;28;8891;-81
2022/01/15 08:46:36;;;;;;;;;38.75;32.50;;;;;5.49;65.51;100611.44;5007763;28;8973;-80
2022/01/15 08:49:05;;;;;;;;;36.25;31.00;;;;;5.17;66.61;100605.91;5006670;28;9580;-81
2022/01/15 08:51:34;;;;;;;;;41.00;33.75;;;;;4.43;69.85;100615.91;5008476;28;8843;-79
2022/01/15 08:54:03;;;;;;;;;37.75;32.75;;;;;4.60;69.66;100603.69;5022138;28;8887;-79
2022/01/15 08:56:33;;;;;;;;;39.20;34.00;;;;;4.97;69.59;100608.63;5007467;28;9003;-80
2022/01/15 08:59:04;;;;;;;;;37.50;35.25;;;;;5.36;68.27;100608.38;4959406;28;8896;-79
2022/01/15 09:01:33;;;;;;;;;45.00;39.25;;;;;5.65;67.23;100609.47;4992541;28;8849;-79
2022/01/15 09:04:02;;;;;;;;;33.75;30.00;;;;;5.91;66.15;100608.63;5027332;28;8864;-78
2022/01/15 09:06:31;;;;;;;;;39.00;35.25;;;;;6.15;65.29;100603.47;5010232;28;10114;-82
2022/01/15 09:08:59;;;;;;;;;34.50;32.75;;;;;6.34;64.39;100598.06;5027150;28;8860;-79
2022/01/15 09:11:28;;;;;;;;;28.40;25.40;;;;;6.24;64.11;100598.59;5038886;28;9061;-80
2022/01/15 09:13:59;;;;;;;;;36.50;34.75;;;;;6.21;63.74;100601.06;5067826;28;8855;-79
2022/01/15 09:16:27;;;;;;;;;32.00;27.40;;;;;6.39;63.27;100608.56;5067680;28;8956;-80
2022/01/15 09:18:57;;;;;;;;;41.60;32.80;;;;;6.53;63.51;100601.28;5050926;28;8870;-79
2022/01/15 09:21:26;;;;;;;;;43.25;37.75;;;;;6.47;63.03;100594.19;5085595;28;8831;-79
2022/01/15 09:23:55;;;;;;;;;32.75;32.50;;;;;6.48;62.80;100592.47;5052002;28;8882;-77
2022/01/15 09:26:45;;;;;;;;;47.50;42.50;;;;;5.45;65.94;100600.06;5021503;28;8978;-77
2022/01/15 09:32:01;;;;;;;;;52.25;40.00;;;;;5.14;67.62;100611.88;5027726;28;9801;-76
2022/01/15 09:34:32;;;;;;;;;46.25;40.75;;;;;4.72;68.94;100604.16;5069744;28;9632;-75
2022/01/15 09:37:00;;;;;;;;;42.00;37.50;;;;;5.06;68.49;100608.06;5087007;28;8948;-76
2022/01/15 09:39:29;;;;;;;;;42.25;37.25;;;;;5.19;67.62;100604.25;5070580;28;8960;-76
2022/01/15 09:41:58;;;;;;;;;36.00;30.60;;;;;5.56;67.70;100598.78;5083043;28;8852;-76
2022/01/15 09:44:28;;;;;;;;;40.00;33.25;;;;;5.66;67.02;100602.56;5083592;28;8875;-76
2022/01/15 09:46:57;;;;;;;;;40.50;38.75;;;;;5.76;65.58;100604.66;5085855;28;8848;-75
2022/01/15 09:49:27;;;;;;;;;34.75;32.50;;;;;5.71;66.13;100602.72;5035373;28;8828;-76
2022/01/15 09:51:57;;;;;;;;;38.00;34.00;;;;;5.38;67.06;100611.00;5035293;28;8863;-76
2022/01/15 09:54:25;;;;;;;;;37.25;32.75;;;;;5.76;67.04;100602.06;5068799;28;8844;-76
2022/01/15 09:56:54;;;;;;;;;42.00;39.75;;;;;5.35;67.04;100604.03;5086228;28;8843;-77
2022/01/15 09:59:22;;;;;;;;;41.50;37.75;;;;;5.50;66.42;100605.41;5068812;28;8863;-76
2022/01/15 10:01:52;;;;;;;;;38.40;33.60;;;;;5.27;67.03;100600.25;5052021;28;8959;-76
2022/01/15 10:04:21;;;;;;;;;31.60;27.20;;;;;5.32;67.00;100600.44;5088636;28;8871;-76
2022/01/15 10:07:09;;;;;;;;;35.00;31.60;;;;;5.69;66.33;100597.53;5088411;28;8890;-75
2022/01/15 10:09:38;;;;;;;;;31.60;27.00;;;;;5.32;66.89;100596.16;5021235;28;8881;-79
2022/01/15 10:12:08;;;;;;;;;42.50;35.00;;;;;5.26;66.97;100593.34;5088923;28;8882;-76
2022/01/15 10:14:39;;;;;;;;;43.25;37.75;;;;;5.27;68.05;100597.66;5089272;28;8868;-76
2022/01/15 10:17:24;;;;;;;;;45.25;33.50;;;;;4.72;69.02;100603.28;5087521;28;8871;-75
2022/01/15 10:19:54;;;;;;;;;35.00;33.00;;;;;4.55;70.41;100605.19;5087883;28;8839;-76
2022/01/15 10:22:25;;;;;;;;;34.75;30.75;;;;;4.63;70.28;100602.09;5087606;28;9589;-76
2022/01/15 10:24:56;;;;;;;;;39.25;35.75;;;;;4.57;70.14;100609.59;5069845;28;8862;-75
2022/01/15 10:27:31;;;;;;;;;36.00;31.75;;;;;4.37;70.55;100608.78;5051506;28;8851;-76
2022/01/15 10:30:07;;;;;;;;;39.25;29.50;;;;;4.81;69.54;100609.69;5050903;28;8848;-73
2022/01/15 10:32:39;;;;;;;;;36.00;32.25;;;;;5.10;68.76;100601.31;5051797;28;8872;-74
2022/01/15 10:35:12;;;;;;;;;40.75;34.75;;;;;5.52;68.42;100596.91;5086760;28;8993;-74
2022/01/15 10:37:52;;;;;;;;;41.75;39.50;;;;;5.04;68.20;100594.22;5087350;28;8861;-74
2022/01/15 10:40:22;;;;;;;;;53.25;44.75;;;;;5.20;68.67;100585.34;5070945;28;9545;-71
2022/01/15 10:42:54;;;;;;;;;45.25;42.25;;;;;5.46;67.14;100586.31;5070710;28;8915;-73
2022/01/15 10:45:24;;;;;;;;;40.75;37.25;;;;;5.11;68.81;100582.41;5053364;28;8837;-73
2022/01/15 10:47:57;;;;;;;;;42.50;38.25;;;;;5.23;68.80;100581.16;5068199;28;8873;-73
2022/01/15 10:50:28;;;;;;;;;43.00;38.00;;;;;5.08;67.83;100581.47;5069519;28;8905;-73
2022/01/15 10:52:59;;;;;;;;;49.50;37.25;;;;;4.84;69.64;100577.94;5069460;28;8960;-72
2022/01/15 10:55:29;;;;;;;;;40.75;37.75;;;;;4.68;69.44;100577.31;5082675;28;8853;-73
2022/01/15 10:58:00;;;;;;;;;54.00;41.50;;;;;4.50;70.08;100576.59;5085966;28;8914;-74
2022/01/15 11:00:30;;;;;;;;;44.00;38.25;;;;;4.60;70.32;100572.69;5089460;28;8942;-73
2022/01/15 11:03:03;;;;;;;;;39.00;35.50;;;;;4.78;70.55;100567.34;5071247;28;8984;-75
2022/01/15 11:05:35;;;;;;;;;43.75;37.75;;;;;4.88;69.72;100562.59;5069111;28;8920;-72
2022/01/15 11:08:14;;;;;;;;;40.75;34.75;;;;;5.47;69.31;100555.31;5086849;28;8866;-74
2022/01/15 11:10:53;;;;;;;;;37.00;34.50;;;;;5.90;67.22;100550.81;5085729;28;8860;-73
2022/01/15 11:13:24;;;;;;;;;39.25;36.25;;;;;5.71;66.15;100549.28;5084816;28;8851;-73
2022/01/15 11:15:56;;;;;;;;;54.75;42.75;;;;;6.13;65.60;100554.19;5080677;28;8936;-72
2022/01/15 11:18:29;;;;;;;;;29.50;28.00;;;;;6.40;64.41;100546.44;5069120;28;9591;-73
2022/01/15 11:20:59;;;;;;;;;38.00;35.00;;;;;6.73;63.78;100543.19;5063398;28;8863;-73
2022/01/15 11:23:30;;;;;;;;;44.25;34.25;;;;;6.18;63.49;100559.53;5068707;28;8863;-75
2022/01/15 11:26:00;;;;;;;;;40.25;38.50;;;;;6.32;63.93;100539.28;5064417;28;8888;-72
2022/01/15 11:28:31;;;;;;;;;43.00;36.50;;;;;6.58;63.24;100541.00;5048947;28;8856;-72
2022/01/15 11:31:02;;;;;;;;;46.25;40.00;;;;;6.41;63.49;100548.22;5066509;28;8846;-73
2022/01/15 11:33:34;;;;;;;;;41.75;39.00;;;;;5.93;63.89;100544.84;5000666;28;9665;-73
2022/01/15 11:36:05;;;;;;;;;49.75;42.25;;;;;6.11;65.39;100542.03;5064423;28;8821;-73
2022/01/15 11:38:45;;;;;;;;;46.75;37.75;;;;;6.01;64.39;100544.31;5066178;28;8847;-73
2022/01/15 11:41:40;;;;;;;;;42.50;40.00;;;;;5.42;66.16;100546.50;5007468;28;8836;-73
2022/01/15 11:44:15;;;;;;;;;41.75;39.25;;;;;5.19;67.83;100537.91;5006655;28;8888;-73
2022/01/15 11:46:48;;;;;;;;;43.25;37.50;;;;;5.54;67.89;100545.19;5021479;28;8856;-74
2022/01/15 11:49:35;;;;;;;;;35.50;32.75;;;;;5.89;66.87;100536.09;5008271;28;9041;-75
2022/01/15 11:52:46;;;;;;;;;35.60;32.40;;;;;6.15;64.46;100525.78;5008666;28;8947;-73
2022/01/15 11:55:18;;;;;;;;;40.40;37.00;;;;;6.26;63.74;100524.41;5006090;28;8944;-73